sensor_id;sensor_type;location;lat;lon;timestamp;temperature;humidity
73509;SHT30;61750;55.036;73.312;2023-02-04T00:00:50;-7.95;72.62
73509;SHT30;61750;55.036;73.312;2023-02-04T00:03:16;-7.95;72.04
73509;SHT30;61750;55.036;73.312;2023-02-04T00:05:50;-7.81;72.55
73509;SHT30;61750;55.036;73.312;2023-02-04T00:08:16;-7.92;71.94
73509;SHT30;61750;55.036;73.312;2023-02-04T00:10:52;-7.97;72.55
73509;SHT30;61750;55.036;73.312;2023-02-04T00:13:18;-7.92;72.88
73509;SHT30;61750;55.036;73.312;2023-02-04T00:15:50;-7.96;72.37
73509;SHT30;61750;55.036;73.312;2023-02-04T00:18:16;-7.99;72.48
73509;SHT30;61750;55.036;73.312;2023-02-04T00:20:53;-8.05;72.32
73509;SHT30;61750;55.036;73.312;2023-02-04T00:23:19;-8.10;72.66
73509;SHT30;61750;55.036;73.312;2023-02-04T00:25:44;-8.10;72.97
73509;SHT30;61750;55.036;73.312;2023-02-04T00:28:11;-8.14;72.94
73509;SHT30;61750;55.036;73.312;2023-02-04T00:30:50;-8.11;72.86
73509;SHT30;61750;55.036;73.312;2023-02-04T00:33:16;-8.09;72.84
73509;SHT30;61750;55.036;73.312;2023-02-04T00:35:50;-8.06;72.92
73509;SHT30;61750;55.036;73.312;2023-02-04T00:38:16;-8.06;72.81
73509;SHT30;61750;55.036;73.312;2023-02-04T00:40:52;-8.11;72.47
73509;SHT30;61750;55.036;73.312;2023-02-04T00:43:18;-8.13;72.86
73509;SHT30;61750;55.036;73.312;2023-02-04T00:45:50;-8.11;72.69
73509;SHT30;61750;55.036;73.312;2023-02-04T00:48:16;-8.11;72.86
73509;SHT30;61750;55.036;73.312;2023-02-04T00:50:50;-8.13;72.80
73509;SHT30;61750;55.036;73.312;2023-02-04T00:53:17;-8.14;73.04
73509;SHT30;61750;55.036;73.312;2023-02-04T00:55:43;-8.20;73.04
73509;SHT30;61750;55.036;73.312;2023-02-04T00:58:10;-8.21;72.92
73509;SHT30;61750;55.036;73.312;2023-02-04T01:00:50;-8.31;73.16
73509;SHT30;61750;55.036;73.312;2023-02-04T01:03:16;-8.36;73.37
73509;SHT30;61750;55.036;73.312;2023-02-04T01:05:50;-8.34;73.65
73509;SHT30;61750;55.036;73.312;2023-02-04T01:08:21;-8.31;73.91
73509;SHT30;61750;55.036;73.312;2023-02-04T01:10:50;-8.31;74.09
73509;SHT30;61750;55.036;73.312;2023-02-04T01:13:20;-8.36;73.92
73509;SHT30;61750;55.036;73.312;2023-02-04T01:15:50;-8.37;74.17
73509;SHT30;61750;55.036;73.312;2023-02-04T01:18:16;-8.36;74.34
73509;SHT30;61750;55.036;73.312;2023-02-04T01:20:50;-8.36;74.34
73509;SHT30;61750;55.036;73.312;2023-02-04T01:23:21;-8.34;74.46
73509;SHT30;61750;55.036;73.312;2023-02-04T01:25:56;-8.40;74.20
73509;SHT30;61750;55.036;73.312;2023-02-04T01:28:22;-8.41;74.36
73509;SHT30;61750;55.036;73.312;2023-02-04T01:30:50;-8.42;74.49
73509;SHT30;61750;55.036;73.312;2023-02-04T01:33:22;-8.45;74.49
73509;SHT30;61750;55.036;73.312;2023-02-04T01:35:59;-8.51;74.30
73509;SHT30;61750;55.036;73.312;2023-02-04T01:38:31;-8.50;74.42
73509;SHT30;61750;55.036;73.312;2023-02-04T01:41:03;-8.55;74.15
73509;SHT30;61750;55.036;73.312;2023-02-04T01:43:29;-8.54;74.22
73509;SHT30;61750;55.036;73.312;2023-02-04T01:46:00;-8.52;74.17
73509;SHT30;61750;55.036;73.312;2023-02-04T01:48:27;-8.51;74.14
73509;SHT30;61750;55.036;73.312;2023-02-04T01:50:54;-8.48;74.17
73509;SHT30;61750;55.036;73.312;2023-02-04T01:53:23;-8.52;73.82
73509;SHT30;61750;55.036;73.312;2023-02-04T01:55:55;-8.50;74.04
73509;SHT30;61750;55.036;73.312;2023-02-04T01:58:21;-8.52;73.86
73509;SHT30;61750;55.036;73.312;2023-02-04T02:00:58;-8.58;73.82
73509;SHT30;61750;55.036;73.312;2023-02-04T02:03:29;-8.60;74.06
73509;SHT30;61750;55.036;73.312;2023-02-04T02:05:55;-8.64;73.85
73509;SHT30;61750;55.036;73.312;2023-02-04T02:08:24;-8.71;73.67
73509;SHT30;61750;55.036;73.312;2023-02-04T02:10:50;-8.77;73.89
73509;SHT30;61750;55.036;73.312;2023-02-04T02:13:17;-8.75;74.35
73509;SHT30;61750;55.036;73.312;2023-02-04T02:15:50;-8.75;74.35
73509;SHT30;61750;55.036;73.312;2023-02-04T02:18:16;-8.75;74.44
73509;SHT30;61750;55.036;73.312;2023-02-04T02:20:50;-8.82;74.08
73509;SHT30;61750;55.036;73.312;2023-02-04T02:23:47;-8.88;74.34
73509;SHT30;61750;55.036;73.312;2023-02-04T02:26:13;-8.94;74.50
73509;SHT30;61750;55.036;73.312;2023-02-04T02:28:39;-8.96;74.64
73509;SHT30;61750;55.036;73.312;2023-02-04T02:31:15;-8.95;74.90
73509;SHT30;61750;55.036;73.312;2023-02-04T02:33:43;-9.01;74.52
73509;SHT30;61750;55.036;73.312;2023-02-04T02:36:14;-9.06;74.62
73509;SHT30;61750;55.036;73.312;2023-02-04T02:38:40;-9.12;74.58
73509;SHT30;61750;55.036;73.312;2023-02-04T02:41:06;-9.11;74.84
73509;SHT30;61750;55.036;73.312;2023-02-04T02:43:34;-9.12;74.96
73509;SHT30;61750;55.036;73.312;2023-02-04T02:46:03;-9.12;75.13
73509;SHT30;61750;55.036;73.312;2023-02-04T02:48:36;-9.26;74.74
73509;SHT30;61750;55.036;73.312;2023-02-04T02:51:02;-9.44;74.32
73509;SHT30;61750;55.036;73.312;2023-02-04T02:53:28;-9.61;74.90
73509;SHT30;61750;55.036;73.312;2023-02-04T02:55:54;-9.75;75.43
73509;SHT30;61750;55.036;73.312;2023-02-04T02:58:23;-9.89;75.90
73509;SHT30;61750;55.036;73.312;2023-02-04T03:00:51;-9.84;76.56
73509;SHT30;61750;55.036;73.312;2023-02-04T03:03:21;-9.81;76.58
73509;SHT30;61750;55.036;73.312;2023-02-04T03:05:51;-9.71;76.80
73509;SHT30;61750;55.036;73.312;2023-02-04T03:08:19;-9.64;76.51
73509;SHT30;61750;55.036;73.312;2023-02-04T03:10:50;-9.53;76.27
73509;SHT30;61750;55.036;73.312;2023-02-04T03:13:16;-9.43;76.13
73509;SHT30;61750;55.036;73.312;2023-02-04T03:15:51;-9.39;75.57
73509;SHT30;61750;55.036;73.312;2023-02-04T03:18:21;-9.35;75.34
73509;SHT30;61750;55.036;73.312;2023-02-04T03:20:50;-9.29;75.20
73509;SHT30;61750;55.036;73.312;2023-02-04T03:23:17;-9.25;74.96
73509;SHT30;61750;55.036;73.312;2023-02-04T03:25:43;-9.15;74.66
73509;SHT30;61750;55.036;73.312;2023-02-04T03:28:09;-9.04;74.82
73509;SHT30;61750;55.036;73.312;2023-02-04T03:30:50;-8.89;74.73
73509;SHT30;61750;55.036;73.312;2023-02-04T03:33:21;-8.92;74.19
73509;SHT30;61750;55.036;73.312;2023-02-04T03:35:50;-8.87;73.94
73509;SHT30;61750;55.036;73.312;2023-02-04T03:38:16;-8.91;73.40
73509;SHT30;61750;55.036;73.312;2023-02-04T03:40:50;-8.94;73.47
73509;SHT30;61750;55.036;73.312;2023-02-04T03:43:16;-8.95;73.58
73509;SHT30;61750;55.036;73.312;2023-02-04T03:45:50;-9.01;73.74
73509;SHT30;61750;55.036;73.312;2023-02-04T03:48:22;-9.06;73.77
73509;SHT30;61750;55.036;73.312;2023-02-04T03:50:53;-8.96;74.49
73509;SHT30;61750;55.036;73.312;2023-02-04T03:53:28;-8.78;74.60
73509;SHT30;61750;55.036;73.312;2023-02-04T03:55:54;-8.69;73.73
73509;SHT30;61750;55.036;73.312;2023-02-04T03:58:20;-8.62;73.50
73509;SHT30;61750;55.036;73.312;2023-02-04T04:00:50;-8.52;73.51
73509;SHT30;61750;55.036;73.312;2023-02-04T04:03:26;-8.47;73.07
73509;SHT30;61750;55.036;73.312;2023-02-04T04:05:58;-8.36;72.95
73509;SHT30;61750;55.036;73.312;2023-02-04T04:08:28;-8.19;72.97
73509;SHT30;61750;55.036;73.312;2023-02-04T04:11:00;-7.93;72.78
73509;SHT30;61750;55.036;73.312;2023-02-04T04:13:26;-7.85;71.85
73509;SHT30;61750;55.036;73.312;2023-02-04T04:15:52;-7.76;71.48
73509;SHT30;61750;55.036;73.312;2023-02-04T04:18:18;-7.71;71.05
73509;SHT30;61750;55.036;73.312;2023-02-04T04:20:54;-7.71;70.70
73509;SHT30;61750;55.036;73.312;2023-02-04T04:23:23;-7.87;70.55
73509;SHT30;61750;55.036;73.312;2023-02-04T04:25:54;-8.02;70.65
73509;SHT30;61750;55.036;73.312;2023-02-04T04:28:25;-8.09;70.89
73509;SHT30;61750;55.036;73.312;2023-02-04T04:30:56;-8.19;71.65
73509;SHT30;61750;55.036;73.312;2023-02-04T04:33:22;-8.23;72.09
73509;SHT30;61750;55.036;73.312;2023-02-04T04:35:58;-8.19;72.42
73509;SHT30;61750;55.036;73.312;2023-02-04T04:38:26;-8.00;72.44
73509;SHT30;61750;55.036;73.312;2023-02-04T04:41:01;-7.83;72.30
73509;SHT30;61750;55.036;73.312;2023-02-04T04:43:27;-7.76;71.88
73509;SHT30;61750;55.036;73.312;2023-02-04T04:45:54;-7.63;71.93
73509;SHT30;61750;55.036;73.312;2023-02-04T04:48:25;-7.52;71.52
73509;SHT30;61750;55.036;73.312;2023-02-04T04:50:51;-7.39;71.22
73509;SHT30;61750;55.036;73.312;2023-02-04T04:53:17;-7.39;70.92
73509;SHT30;61750;55.036;73.312;2023-02-04T04:55:52;-7.38;70.72
73509;SHT30;61750;55.036;73.312;2023-02-04T04:58:27;-7.32;71.11
73509;SHT30;61750;55.036;73.312;2023-02-04T05:00:58;-7.24;71.30
73509;SHT30;61750;55.036;73.312;2023-02-04T05:03:24;-7.20;71.15
73509;SHT30;61750;55.036;73.312;2023-02-04T05:05:55;-7.20;70.63
73509;SHT30;61750;55.036;73.312;2023-02-04T05:08:26;-7.15;70.94
73509;SHT30;61750;55.036;73.312;2023-02-04T05:10:55;-7.21;70.62
73509;SHT30;61750;55.036;73.312;2023-02-04T05:13:31;-7.01;70.72
73509;SHT30;61750;55.036;73.312;2023-02-04T05:15:57;-6.72;69.97
73509;SHT30;61750;55.036;73.312;2023-02-04T05:18:23;-6.54;68.92
73509;SHT30;61750;55.036;73.312;2023-02-04T05:20:54;-6.36;68.60
73509;SHT30;61750;55.036;73.312;2023-02-04T05:23:20;-6.15;67.88
73509;SHT30;61750;55.036;73.312;2023-02-04T05:25:46;-6.06;67.22
73509;SHT30;61750;55.036;73.312;2023-02-04T05:28:12;-6.18;66.86
73509;SHT30;61750;55.036;73.312;2023-02-04T05:30:50;-6.19;66.98
73509;SHT30;61750;55.036;73.312;2023-02-04T05:33:16;-6.08;67.41
73509;SHT30;61750;55.036;73.312;2023-02-04T05:35:53;-6.12;67.03
73509;SHT30;61750;55.036;73.312;2023-02-04T05:38:19;-6.12;67.13
73509;SHT30;61750;55.036;73.312;2023-02-04T05:40:50;-6.06;67.03
73509;SHT30;61750;55.036;73.312;2023-02-04T05:43:17;-6.03;66.61
73509;SHT30;61750;55.036;73.312;2023-02-04T05:45:50;-5.95;66.81
73509;SHT30;61750;55.036;73.312;2023-02-04T05:48:16;-5.81;66.43
73509;SHT30;61750;55.036;73.312;2023-02-04T05:50:50;-5.68;66.31
73509;SHT30;61750;55.036;73.312;2023-02-04T05:53:16;-5.61;66.33
73509;SHT30;61750;55.036;73.312;2023-02-04T05:55:42;-5.58;66.30
73509;SHT30;61750;55.036;73.312;2023-02-04T05:58:08;-5.60;66.04
73509;SHT30;61750;55.036;73.312;2023-02-04T06:00:50;-5.53;66.14
73509;SHT30;61750;55.036;73.312;2023-02-04T06:03:21;-5.54;66.29
73509;SHT30;61750;55.036;73.312;2023-02-04T06:05:52;-5.53;66.09
73509;SHT30;61750;55.036;73.312;2023-02-04T06:08:28;-5.47;65.80
73509;SHT30;61750;55.036;73.312;2023-02-04T06:10:54;-5.48;65.80
73509;SHT30;61750;55.036;73.312;2023-02-04T06:13:20;-5.37;65.61
73509;SHT30;61750;55.036;73.312;2023-02-04T06:15:50;-5.34;66.37
73509;SHT30;61750;55.036;73.312;2023-02-04T06:18:26;-5.33;65.40
73509;SHT30;61750;55.036;73.312;2023-02-04T06:20:52;-5.30;65.32
73509;SHT30;61750;55.036;73.312;2023-02-04T06:23:18;-5.30;65.13
73509;SHT30;61750;55.036;73.312;2023-02-04T06:25:45;-5.47;65.50
73509;SHT30;61750;55.036;73.312;2023-02-04T06:28:18;-5.43;65.63
73509;SHT30;61750;55.036;73.312;2023-02-04T06:30:50;-5.38;65.66
73509;SHT30;61750;55.036;73.312;2023-02-04T06:33:16;-5.33;65.30
73509;SHT30;61750;55.036;73.312;2023-02-04T06:35:50;-5.30;64.83
73509;SHT30;61750;55.036;73.312;2023-02-04T06:38:21;-5.19;64.91
73509;SHT30;61750;55.036;73.312;2023-02-04T06:40:50;-5.17;64.64
73509;SHT30;61750;55.036;73.312;2023-02-04T06:43:23;-5.15;65.24
73509;SHT30;61750;55.036;73.312;2023-02-04T06:45:50;-4.93;64.87
73509;SHT30;61750;55.036;73.312;2023-02-04T06:48:16;-4.93;64.24
73509;SHT30;61750;55.036;73.312;2023-02-04T06:50:50;-4.93;64.80
73509;SHT30;61750;55.036;73.312;2023-02-04T06:53:16;-4.82;64.93
73509;SHT30;61750;55.036;73.312;2023-02-04T06:55:43;-4.72;64.73
73509;SHT30;61750;55.036;73.312;2023-02-04T06:58:09;-4.57;64.20
73509;SHT30;61750;55.036;73.312;2023-02-04T07:00:50;-4.68;64.37
73509;SHT30;61750;55.036;73.312;2023-02-04T07:03:20;-4.76;64.29
73509;SHT30;61750;55.036;73.312;2023-02-04T07:05:50;-4.76;64.16
73509;SHT30;61750;55.036;73.312;2023-02-04T07:08:17;-4.68;64.18
73509;SHT30;61750;55.036;73.312;2023-02-04T07:10:50;-4.58;64.25
73509;SHT30;61750;55.036;73.312;2023-02-04T07:13:16;-4.52;65.09
73509;SHT30;61750;55.036;73.312;2023-02-04T07:15:50;-4.45;64.96
73509;SHT30;61750;55.036;73.312;2023-02-04T07:18:17;-4.49;64.73
73509;SHT30;61750;55.036;73.312;2023-02-04T07:20:50;-4.32;64.77
73509;SHT30;61750;55.036;73.312;2023-02-04T07:23:21;-4.25;63.81
73509;SHT30;61750;55.036;73.312;2023-02-04T07:25:48;-4.27;63.47
73509;SHT30;61750;55.036;73.312;2023-02-04T07:28:15;-4.30;62.47
73509;SHT30;61750;55.036;73.312;2023-02-04T07:30:50;-4.34;62.12
73509;SHT30;61750;55.036;73.312;2023-02-04T07:33:26;-4.45;62.46
73509;SHT30;61750;55.036;73.312;2023-02-04T07:35:52;-4.55;62.97
73509;SHT30;61750;55.036;73.312;2023-02-04T07:38:18;-4.78;62.98
73509;SHT30;61750;55.036;73.312;2023-02-04T07:40:50;-4.73;63.50
73509;SHT30;61750;55.036;73.312;2023-02-04T07:43:16;-4.65;64.18
73509;SHT30;61750;55.036;73.312;2023-02-04T07:45:50;-4.59;64.73
73509;SHT30;61750;55.036;73.312;2023-02-04T07:48:17;-4.69;66.32
73509;SHT30;61750;55.036;73.312;2023-02-04T07:50:50;-4.75;65.92
73509;SHT30;61750;55.036;73.312;2023-02-04T07:53:21;-4.79;64.95
73509;SHT30;61750;55.036;73.312;2023-02-04T07:55:47;-4.76;66.50
73509;SHT30;61750;55.036;73.312;2023-02-04T07:58:13;-4.75;67.18
73509;SHT30;61750;55.036;73.312;2023-02-04T08:00:50;-4.72;66.72
73509;SHT30;61750;55.036;73.312;2023-02-04T08:03:27;-4.66;66.33
73509;SHT30;61750;55.036;73.312;2023-02-04T08:05:53;-4.81;66.17
73509;SHT30;61750;55.036;73.312;2023-02-04T08:08:19;-4.73;66.23
73509;SHT30;61750;55.036;73.312;2023-02-04T08:10:50;-4.86;66.17
73509;SHT30;61750;55.036;73.312;2023-02-04T08:13:16;-4.78;65.53
73509;SHT30;61750;55.036;73.312;2023-02-04T08:15:50;-4.59;65.37
73509;SHT30;61750;55.036;73.312;2023-02-04T08:18:16;-4.54;65.05
73509;SHT30;61750;55.036;73.312;2023-02-04T08:20:50;-4.41;64.97
73509;SHT30;61750;55.036;73.312;2023-02-04T08:23:16;-4.27;64.46
73509;SHT30;61750;55.036;73.312;2023-02-04T08:25:42;-4.55;64.24
73509;SHT30;61750;55.036;73.312;2023-02-04T08:28:10;-4.35;64.03
73509;SHT30;61750;55.036;73.312;2023-02-04T08:30:50;-4.14;63.27
73509;SHT30;61750;55.036;73.312;2023-02-04T08:33:16;-3.96;63.41
73509;SHT30;61750;55.036;73.312;2023-02-04T08:35:50;-3.82;62.72
73509;SHT30;61750;55.036;73.312;2023-02-04T08:38:26;-3.73;62.41
73509;SHT30;61750;55.036;73.312;2023-02-04T08:40:58;-3.63;62.39
73509;SHT30;61750;55.036;73.312;2023-02-04T08:43:24;-3.36;62.30
73509;SHT30;61750;55.036;73.312;2023-02-04T08:45:50;-3.15;61.89
73509;SHT30;61750;55.036;73.312;2023-02-04T08:48:17;-3.05;60.66
73509;SHT30;61750;55.036;73.312;2023-02-04T08:50:50;-2.87;60.81
73509;SHT30;61750;55.036;73.312;2023-02-04T08:53:26;-2.66;60.16
73509;SHT30;61750;55.036;73.312;2023-02-04T08:56:02;-2.46;60.18
73509;SHT30;61750;55.036;73.312;2023-02-04T08:58:33;-2.36;58.80
73509;SHT30;61750;55.036;73.312;2023-02-04T09:01:04;-2.25;59.02
73509;SHT30;61750;55.036;73.312;2023-02-04T09:03:41;-2.19;58.66
73509;SHT30;61750;55.036;73.312;2023-02-04T09:06:12;-2.05;57.65
73509;SHT30;61750;55.036;73.312;2023-02-04T09:08:48;-2.01;57.85
73509;SHT30;61750;55.036;73.312;2023-02-04T09:11:14;-1.89;58.16
73509;SHT30;61750;55.036;73.312;2023-02-04T09:13:40;-1.58;56.75
73509;SHT30;61750;55.036;73.312;2023-02-04T09:16:06;-1.51;56.66
73509;SHT30;61750;55.036;73.312;2023-02-04T09:18:44;-1.51;55.45
73509;SHT30;61750;55.036;73.312;2023-02-04T09:21:15;-1.28;55.36
73509;SHT30;61750;55.036;73.312;2023-02-04T09:23:47;-1.24;55.08
73509;SHT30;61750;55.036;73.312;2023-02-04T09:26:13;-1.03;55.42
73509;SHT30;61750;55.036;73.312;2023-02-04T09:28:39;-1.08;54.26
73509;SHT30;61750;55.036;73.312;2023-02-04T09:31:05;-1.05;54.98
73509;SHT30;61750;55.036;73.312;2023-02-04T09:33:31;-1.05;54.28
73509;SHT30;61750;55.036;73.312;2023-02-04T09:36:02;-0.82;53.99
73509;SHT30;61750;55.036;73.312;2023-02-04T09:38:33;-0.72;53.66
73509;SHT30;61750;55.036;73.312;2023-02-04T09:41:03;-0.80;53.91
73509;SHT30;61750;55.036;73.312;2023-02-04T09:43:30;-0.74;52.90
73509;SHT30;61750;55.036;73.312;2023-02-04T09:46:08;-0.50;52.40
73509;SHT30;61750;55.036;73.312;2023-02-04T09:48:42;-0.33;52.33
73509;SHT30;61750;55.036;73.312;2023-02-04T09:51:09;-0.17;52.74
73509;SHT30;61750;55.036;73.312;2023-02-04T09:53:38;-0.09;51.75
73509;SHT30;61750;55.036;73.312;2023-02-04T09:56:04;-0.36;51.23
73509;SHT30;61750;55.036;73.312;2023-02-04T09:58:35;-0.48;52.49
73509;SHT30;61750;55.036;73.312;2023-02-04T10:01:14;-0.52;52.20
73509;SHT30;61750;55.036;73.312;2023-02-04T10:03:40;-0.60;52.41
73509;SHT30;61750;55.036;73.312;2023-02-04T10:06:15;-0.82;52.84
73509;SHT30;61750;55.036;73.312;2023-02-04T10:08:41;-0.84;52.84
73509;SHT30;61750;55.036;73.312;2023-02-04T10:11:15;-1.18;53.07
73509;SHT30;61750;55.036;73.312;2023-02-04T10:13:53;-1.45;54.75
73509;SHT30;61750;55.036;73.312;2023-02-04T10:16:23;-1.38;55.33
73509;SHT30;61750;55.036;73.312;2023-02-04T10:18:57;-1.51;54.98
73509;SHT30;61750;55.036;73.312;2023-02-04T10:21:28;-1.33;54.83
73509;SHT30;61750;55.036;73.312;2023-02-04T10:24:11;-1.10;54.50
73509;SHT30;61750;55.036;73.312;2023-02-04T10:26:38;-1.23;55.06
73509;SHT30;61750;55.036;73.312;2023-02-04T10:29:05;-1.30;54.15
73509;SHT30;61750;55.036;73.312;2023-02-04T10:31:35;-1.38;54.43
73509;SHT30;61750;55.036;73.312;2023-02-04T10:34:06;-1.24;55.05
73509;SHT30;61750;55.036;73.312;2023-02-04T10:36:32;-1.25;54.22
73509;SHT30;61750;55.036;73.312;2023-02-04T10:39:03;-1.25;54.12
73509;SHT30;61750;55.036;73.312;2023-02-04T10:41:31;-1.17;53.81
73509;SHT30;61750;55.036;73.312;2023-02-04T10:44:02;-1.11;53.97
73509;SHT30;61750;55.036;73.312;2023-02-04T10:46:39;-1.10;54.51
73509;SHT30;61750;55.036;73.312;2023-02-04T10:49:14;-1.07;54.80
73509;SHT30;61750;55.036;73.312;2023-02-04T10:51:41;-1.33;54.50
73509;SHT30;61750;55.036;73.312;2023-02-04T10:54:18;-1.52;54.85
73509;SHT30;61750;55.036;73.312;2023-02-04T10:59:43;-1.79;55.54
73509;SHT30;61750;55.036;73.312;2023-02-04T11:04:47;-2.13;55.93
73509;SHT30;61750;55.036;73.312;2023-02-04T11:07:13;-2.25;56.37
73509;SHT30;61750;55.036;73.312;2023-02-04T11:09:42;-2.43;56.70
73509;SHT30;61750;55.036;73.312;2023-02-04T11:12:22;-2.67;57.93
73509;SHT30;61750;55.036;73.312;2023-02-04T11:14:55;-2.89;58.32
73509;SHT30;61750;55.036;73.312;2023-02-04T11:17:33;-3.25;59.03
73509;SHT30;61750;55.036;73.312;2023-02-04T11:19:59;-3.63;59.61
73509;SHT30;61750;55.036;73.312;2023-02-04T11:22:44;-3.98;60.54
73509;SHT30;61750;55.036;73.312;2023-02-04T11:25:30;-4.47;61.86
73509;SHT30;61750;55.036;73.312;2023-02-04T11:28:15;-4.93;62.68
73509;SHT30;61750;55.036;73.312;2023-02-04T11:30:59;-5.27;63.63
73509;SHT30;61750;55.036;73.312;2023-02-04T11:33:32;-5.67;64.62
73509;SHT30;61750;55.036;73.312;2023-02-04T11:36:04;-5.94;66.36
73509;SHT30;61750;55.036;73.312;2023-02-04T11:38:31;-6.15;67.17
73509;SHT30;61750;55.036;73.312;2023-02-04T11:40:57;-6.28;67.77
73509;SHT30;61750;55.036;73.312;2023-02-04T11:43:31;-6.45;68.25
73509;SHT30;61750;55.036;73.312;2023-02-04T11:46:04;-6.57;68.46
73509;SHT30;61750;55.036;73.312;2023-02-04T11:48:30;-6.66;69.17
73509;SHT30;61750;55.036;73.312;2023-02-04T11:50:59;-6.75;69.35
73509;SHT30;61750;55.036;73.312;2023-02-04T11:53:29;-6.91;69.37
73509;SHT30;61750;55.036;73.312;2023-02-04T11:55:56;-6.99;70.15
73509;SHT30;61750;55.036;73.312;2023-02-04T11:58:22;-7.07;70.73
73509;SHT30;61750;55.036;73.312;2023-02-04T12:00:51;-7.18;70.80
73509;SHT30;61750;55.036;73.312;2023-02-04T12:05:50;-7.44;71.31
73509;SHT30;61750;55.036;73.312;2023-02-04T12:13:18;-7.86;72.60
73509;SHT30;61750;55.036;73.312;2023-02-04T12:16:03;-8.05;73.11
73509;SHT30;61750;55.036;73.312;2023-02-04T12:18:30;-8.21;73.91
73509;SHT30;61750;55.036;73.312;2023-02-04T12:20:57;-8.33;74.70
73509;SHT30;61750;55.036;73.312;2023-02-04T12:23:23;-8.52;75.30
73509;SHT30;61750;55.036;73.312;2023-02-04T12:25:54;-8.64;76.02
73509;SHT30;61750;55.036;73.312;2023-02-04T12:28:20;-8.72;76.71
73509;SHT30;61750;55.036;73.312;2023-02-04T12:30:50;-8.84;77.18
73509;SHT30;61750;55.036;73.312;2023-02-04T12:33:26;-8.95;77.64
73509;SHT30;61750;55.036;73.312;2023-02-04T12:35:52;-9.02;78.19
73509;SHT30;61750;55.036;73.312;2023-02-04T12:38:18;-9.08;78.65
73509;SHT30;61750;55.036;73.312;2023-02-04T12:40:50;-9.11;79.12
73509;SHT30;61750;55.036;73.312;2023-02-04T12:43:16;-9.18;79.24
73509;SHT30;61750;55.036;73.312;2023-02-04T12:45:50;-9.26;79.49
73509;SHT30;61750;55.036;73.312;2023-02-04T12:48:16;-9.32;79.80
73509;SHT30;61750;55.036;73.312;2023-02-04T12:50:50;-9.39;80.07
73509;SHT30;61750;55.036;73.312;2023-02-04T12:53:16;-9.47;80.14
73509;SHT30;61750;55.036;73.312;2023-02-04T12:55:46;-9.51;80.42
73509;SHT30;61750;55.036;73.312;2023-02-04T12:58:12;-9.59;80.54
73509;SHT30;61750;55.036;73.312;2023-02-04T13:00:50;-9.77;80.29
73509;SHT30;61750;55.036;73.312;2023-02-04T13:03:16;-9.95;80.09
73509;SHT30;61750;55.036;73.312;2023-02-04T13:05:51;-9.98;80.57
73509;SHT30;61750;55.036;73.312;2023-02-04T13:08:27;-10.05;81.01
73509;SHT30;61750;55.036;73.312;2023-02-04T13:10:53;-10.10;81.20
73509;SHT30;61750;55.036;73.312;2023-02-04T13:13:20;-10.17;81.38
73509;SHT30;61750;55.036;73.312;2023-02-04T13:15:50;-10.25;81.50
73509;SHT30;61750;55.036;73.312;2023-02-04T13:18:16;-10.35;81.55
73509;SHT30;61750;55.036;73.312;2023-02-04T13:20:50;-10.39;81.75
73509;SHT30;61750;55.036;73.312;2023-02-04T13:23:16;-10.44;81.91
73509;SHT30;61750;55.036;73.312;2023-02-04T13:25:42;-10.52;81.98
73509;SHT30;61750;55.036;73.312;2023-02-04T13:28:09;-10.58;82.04
73509;SHT30;61750;55.036;73.312;2023-02-04T13:30:50;-10.59;82.27
73509;SHT30;61750;55.036;73.312;2023-02-04T13:33:25;-10.62;82.38
73509;SHT30;61750;55.036;73.312;2023-02-04T13:35:51;-10.69;82.30
73509;SHT30;61750;55.036;73.312;2023-02-04T13:38:17;-10.76;82.38
73509;SHT30;61750;55.036;73.312;2023-02-04T13:40:50;-10.84;82.17
73509;SHT30;61750;55.036;73.312;2023-02-04T13:43:16;-10.91;82.15
73509;SHT30;61750;55.036;73.312;2023-02-04T13:45:50;-11.06;82.02
73509;SHT30;61750;55.036;73.312;2023-02-04T13:48:16;-11.10;82.21
73509;SHT30;61750;55.036;73.312;2023-02-04T13:50:50;-11.24;81.97
73509;SHT30;61750;55.036;73.312;2023-02-04T13:53:17;-11.38;81.80
73509;SHT30;61750;55.036;73.312;2023-02-04T13:55:42;-11.44;81.83
73509;SHT30;61750;55.036;73.312;2023-02-04T13:58:08;-11.40;82.40
73509;SHT30;61750;55.036;73.312;2023-02-04T14:00:50;-11.37;82.85
73509;SHT30;61750;55.036;73.312;2023-02-04T14:03:16;-11.41;82.91
73509;SHT30;61750;55.036;73.312;2023-02-04T14:05:50;-11.52;82.78
73509;SHT30;61750;55.036;73.312;2023-02-04T14:08:16;-11.58;82.74
73509;SHT30;61750;55.036;73.312;2023-02-04T14:10:54;-11.57;83.07
73509;SHT30;61750;55.036;73.312;2023-02-04T14:13:30;-11.51;83.53
73509;SHT30;61750;55.036;73.312;2023-02-04T14:16:01;-11.44;83.95
73509;SHT30;61750;55.036;73.312;2023-02-04T14:18:33;-11.41;84.07
73509;SHT30;61750;55.036;73.312;2023-02-04T14:20:59;-11.50;83.90
73509;SHT30;61750;55.036;73.312;2023-02-04T14:23:28;-11.54;83.64
73509;SHT30;61750;55.036;73.312;2023-02-04T14:25:58;-11.59;83.59
73509;SHT30;61750;55.036;73.312;2023-02-04T14:28:30;-11.57;83.79
73509;SHT30;61750;55.036;73.312;2023-02-04T14:31:00;-11.61;83.68
73509;SHT30;61750;55.036;73.312;2023-02-04T14:33:31;-11.67;83.61
73509;SHT30;61750;55.036;73.312;2023-02-04T14:35:57;-11.67;83.76
73509;SHT30;61750;55.036;73.312;2023-02-04T14:38:33;-11.59;84.10
73509;SHT30;61750;55.036;73.312;2023-02-04T14:40:59;-11.62;83.94
73509;SHT30;61750;55.036;73.312;2023-02-04T14:43:25;-11.69;83.84
73509;SHT30;61750;55.036;73.312;2023-02-04T14:45:51;-11.72;83.65
73509;SHT30;61750;55.036;73.312;2023-02-04T14:48:17;-11.76;83.66
73509;SHT30;61750;55.036;73.312;2023-02-04T14:50:50;-11.81;83.62
73509;SHT30;61750;55.036;73.312;2023-02-04T14:53:16;-11.90;83.40
73509;SHT30;61750;55.036;73.312;2023-02-04T14:55:42;-11.89;83.49
73509;SHT30;61750;55.036;73.312;2023-02-04T14:58:08;-11.90;83.42
73509;SHT30;61750;55.036;73.312;2023-02-04T15:00:50;-11.96;83.48
73509;SHT30;61750;55.036;73.312;2023-02-04T15:03:16;-12.03;83.21
73509;SHT30;61750;55.036;73.312;2023-02-04T15:05:50;-12.16;82.97
73509;SHT30;61750;55.036;73.312;2023-02-04T15:08:16;-12.26;82.71
73509;SHT30;61750;55.036;73.312;2023-02-04T15:10:50;-12.33;82.49
73509;SHT30;61750;55.036;73.312;2023-02-04T15:13:21;-12.33;82.54
73509;SHT30;61750;55.036;73.312;2023-02-04T15:15:57;-12.30;82.82
73509;SHT30;61750;55.036;73.312;2023-02-04T15:18:33;-12.22;82.85
73509;SHT30;61750;55.036;73.312;2023-02-04T15:20:59;-12.13;83.14
73509;SHT30;61750;55.036;73.312;2023-02-04T15:23:27;-11.96;83.32
73509;SHT30;61750;55.036;73.312;2023-02-04T15:25:53;-11.86;83.39
73509;SHT30;61750;55.036;73.312;2023-02-04T15:28:22;-11.75;83.29
73509;SHT30;61750;55.036;73.312;2023-02-04T15:30:50;-11.61;83.10
73509;SHT30;61750;55.036;73.312;2023-02-04T15:33:16;-11.41;83.11
73509;SHT30;61750;55.036;73.312;2023-02-04T15:35:50;-11.34;82.92
73509;SHT30;61750;55.036;73.312;2023-02-04T15:38:16;-11.28;82.51
73509;SHT30;61750;55.036;73.312;2023-02-04T15:40:50;-11.28;82.15
73509;SHT30;61750;55.036;73.312;2023-02-04T15:43:16;-11.33;81.85